Nisijima — JD3962 — position and weather

sailwx.info

Track history (hours):
 
Tides and Currents Weather Stations Pressure Air Temp Water Temp Dewpoint Dewpoint Depression Visibility Wind Speed Wind Dir Waves Ship Positions

Nisijima

Last reported at 2018-May-18 04:59 UTC. Time now 2018-May-20 10:22 UTC.
Position N 34°39' E 134°38'.

Length 74 m.

Type: Ship. MMSI: 431007231.

Date/timePositionNaut miles runAvg speedWind from/ knotsBaromVisibWave heightAir tempDewpointWater temp
2018-May-18 04:59N 34°39' E 134°38'2012.3
2018-May-18 03:22N 34°37' E 135°03'410.7
2018-May-18 02:57N 34°32' E 135°04'613.8
2018-May-18 02:30N 34°26' E 135°02'713.8
2018-May-18 02:00N 34°20' E 135°00'613.0
2018-May-18 01:30N 34°13' E 135°01'713.5
2018-May-18 01:00N 34°07' E 135°02'814.0
2018-May-18 00:28N 33°59' E 135°02'8 1.4
2018-May-17 18:54N 34°07' E 135°02'512.4
2018-May-17 18:30N 34°12' E 135°03'613.0
2018-May-17 18:00N 34°18' E 135°04'1212.8
2018-May-17 17:04N 34°28' E 135°13'112.2
2018-May-17 17:00N 34°28' E 135°13'612.1
2018-May-17 16:30N 34°32' E 135°18'8 0.8
2018-May-17 06:24N 34°35' E 135°27'0 0.0
2018-May-17 04:18N 34°35' E 135°27'0 0.0
2018-May-17 04:00N 34°35' E 135°27'3 5.0
2018-May-17 03:30N 34°36' E 135°24'4 1.3
2018-May-17 00:44N 34°33' E 135°23'411.8
2018-May-17 00:22N 34°37' E 135°23'4 0.2
2018-May-16 05:32N 34°40' E 135°25'0 0.8
2018-May-16 05:28N 34°40' E 135°25'511.3
2018-May-16 05:00N 34°36' E 135°23'5 0.9
2018-May-15 23:05N 34°40' E 135°25'0 0.0
2018-May-15 22:59N 34°40' E 135°25'0 0.0
2018-May-15 22:26N 34°40' E 135°25'1 0.2
2018-May-15 14:19N 34°40' E 135°27'0 0.0
2018-May-15 13:58N 34°40' E 135°27'0 0.0
2018-May-15 13:28N 34°40' E 135°27'0 0.0
2018-May-15 12:58N 34°40' E 135°27'0 0.0
2018-May-15 12:28N 34°40' E 135°27'0 0.0
2018-May-15 11:58N 34°40' E 135°27'0 0.0
2018-May-15 11:28N 34°40' E 135°27'0 0.0
2018-May-15 10:58N 34°40' E 135°27'0 0.0
2018-May-15 10:25N 34°40' E 135°27'0 0.0
2018-May-15 09:58N 34°40' E 135°27'0 0.0
2018-May-15 09:28N 34°40' E 135°27'0 0.0
2018-May-15 08:58N 34°40' E 135°27'0 0.0
2018-May-15 08:28N 34°40' E 135°27'0 0.0
2018-May-15 07:58N 34°40' E 135°27'0 0.0
2018-May-15 07:28N 34°40' E 135°27'0 0.0
2018-May-15 06:58N 34°40' E 135°27'0 0.0
2018-May-15 06:28N 34°40' E 135°27'0 0.0
2018-May-15 05:58N 34°40' E 135°27'4 8.6
2018-May-15 05:29N 34°38' E 135°23'612.2
2018-May-15 05:00N 34°32' E 135°23'0 0.7
2018-May-15 04:28N 34°31' E 135°23'0 0.0
2018-May-15 03:58N 34°31' E 135°23'0 0.0
2018-May-15 03:25N 34°31' E 135°23'4 8.4
2018-May-15 03:00N 34°35' E 135°23'611.5
2018-May-15 02:30N 34°40' E 135°25'0 0.5
2018-May-15 01:59N 34°40' E 135°25'0 0.0
2018-May-15 01:29N 34°40' E 135°25'0 0.0
2018-May-15 00:59N 34°40' E 135°25'0 0.0
2018-May-15 00:29N 34°40' E 135°25'0 0.0
2018-May-14 23:59N 34°40' E 135°25'0 0.0
2018-May-14 23:29N 34°40' E 135°25'0 0.0
2018-May-14 22:59N 34°40' E 135°25'0 0.0
2018-May-14 22:29N 34°40' E 135°25'0 0.0
2018-May-14 21:59N 34°40' E 135°25'0 0.0
2018-May-14 21:29N 34°40' E 135°25'1 2.0
2018-May-14 21:01N 34°40' E 135°26'1 2.5
2018-May-14 20:28N 34°40' E 135°27'0 0.0
2018-May-14 19:59N 34°40' E 135°27'0 0.0
2018-May-14 19:29N 34°40' E 135°27'0 0.0
2018-May-14 18:59N 34°40' E 135°27'0 0.0
2018-May-14 18:29N 34°40' E 135°27'0 0.0
2018-May-14 17:59N 34°40' E 135°27'0 0.0
2018-May-14 17:29N 34°40' E 135°27'0 0.0
2018-May-14 16:58N 34°40' E 135°27'0 0.0
2018-May-14 16:28N 34°40' E 135°27'0 0.0
2018-May-14 15:58N 34°40' E 135°27'0 0.0
2018-May-14 15:28N 34°40' E 135°27'0 0.0
2018-May-14 14:59N 34°40' E 135°27'0 0.0
2018-May-14 14:29N 34°40' E 135°27'0 0.0
2018-May-14 13:58N 34°40' E 135°27'0 0.0
2018-May-14 13:29N 34°40' E 135°27'0 0.0
2018-May-14 12:59N 34°40' E 135°27'0 0.0
2018-May-14 12:29N 34°40' E 135°27'0 0.0
2018-May-14 11:53N 34°40' E 135°27'0 0.0
2018-May-14 11:29N 34°40' E 135°27'0 0.0
2018-May-14 10:58N 34°40' E 135°27'0 0.0
2018-May-14 10:29N 34°40' E 135°27'0 0.0
2018-May-14 09:59N 34°40' E 135°27'0 0.0
2018-May-14 09:29N 34°40' E 135°27'0 0.0
2018-May-14 08:59N 34°40' E 135°27'0 0.0
2018-May-14 08:29N 34°40' E 135°27'0 0.0
2018-May-14 07:59N 34°40' E 135°27'0 0.0
2018-May-14 07:29N 34°40' E 135°27'0 0.0
2018-May-14 06:59N 34°40' E 135°27'0 0.0
2018-May-14 06:29N 34°40' E 135°27'0 0.0
2018-May-14 05:59N 34°40' E 135°27'0 0.0
2018-May-14 05:25N 34°40' E 135°27'0 0.0
2018-May-14 04:59N 34°40' E 135°27'2 4.1
2018-May-14 04:31N 34°39' E 135°26'3 6.0
2018-May-14 04:00N 34°42' E 135°24'0 0.0
2018-May-14 03:30N 34°42' E 135°24'0 0.8
2018-May-14 03:00N 34°42' E 135°24'4 7.9
2018-May-14 02:30N 34°39' E 135°27'0 0.4
2018-May-14 01:59N 34°39' E 135°27'0 0.0
2018-May-14 01:29N 34°39' E 135°27'0 0.0
2018-May-14 00:59N 34°39' E 135°27'0 0.0
2018-May-14 00:29N 34°39' E 135°27'1 1.1
2018-May-14 00:00N 34°39' E 135°27'611.6
2018-May-13 23:30N 34°41' E 135°20'3 5.2
2018-May-13 22:58N 34°42' E 135°17'0 0.0
2018-May-13 22:28N 34°42' E 135°17'0 0.0
2018-May-13 21:58N 34°42' E 135°17'0 0.0
2018-May-13 21:28N 34°42' E 135°17'0 0.0
2018-May-13 20:58N 34°42' E 135°17'1 1.9
2018-May-13 20:30N 34°42' E 135°18'510.5
2018-May-13 20:00N 34°37' E 135°15'612.3
2018-May-13 19:30N 34°35' E 135°08'611.9
2018-May-13 19:00N 34°37' E 135°01'612.3
2018-May-13 18:30N 34°37' E 134°53'713.1
2018-May-13 17:58N 34°39' E 134°45'11 0.2
2018-May-11 17:14N 34°41' E 134°32'0 0.2
2018-May-11 16:56N 34°41' E 134°33'0 0.0
2018-May-11 16:26N 34°41' E 134°33'0 0.0
2018-May-11 11:32N 34°41' E 134°32'0 0.0
2018-May-11 11:14N 34°41' E 134°32'0 0.0
2018-May-11 09:38N 34°41' E 134°32'1 3.6
2018-May-11 09:29N 34°41' E 134°33'612.0
2018-May-11 08:59N 34°40' E 134°40'712.4
2018-May-11 08:23N 34°39' E 134°49'513.7
2018-May-11 08:00N 34°37' E 134°55'613.0
2018-May-11 07:30N 34°36' E 135°03'611.6
2018-May-11 07:00N 34°36' E 135°10'611.5
2018-May-11 06:30N 34°37' E 135°17'611.4
2018-May-11 06:00N 34°36' E 135°24'3 6.2
2018-May-11 05:30N 34°35' E 135°27'0 0.0
2018-May-11 05:00N 34°35' E 135°27'0 0.0
2018-May-11 04:27N 34°35' E 135°27'0 0.0
2018-May-11 04:00N 34°35' E 135°27'1 2.3
2018-May-11 03:30N 34°35' E 135°26'4 7.8
2018-May-11 03:00N 34°32' E 135°23'1 2.0
2018-May-11 02:30N 34°31' E 135°23'0 0.0
2018-May-11 02:00N 34°31' E 135°23'0 0.0
2018-May-11 01:27N 34°31' E 135°23'0 0.0
2018-May-11 00:59N 34°31' E 135°23'2 4.7
2018-May-11 00:30N 34°34' E 135°23'3 6.3
2018-May-11 00:00N 34°35' E 135°26'1 1.4
2018-May-10 23:30N 34°35' E 135°27'0 0.0
2018-May-10 23:00N 34°35' E 135°27'0 0.0
2018-May-10 22:27N 34°35' E 135°27'0 0.0
2018-May-10 22:00N 34°35' E 135°27'0 0.0
2018-May-10 21:30N 34°35' E 135°27'0 0.0
2018-May-10 21:00N 34°35' E 135°27'0 0.0
2018-May-10 20:30N 34°35' E 135°27'0 0.0
2018-May-10 20:00N 34°35' E 135°27'0 0.0
2018-May-10 19:30N 34°35' E 135°27'0 0.0
2018-May-10 19:00N 34°35' E 135°27'0 0.0
2018-May-10 18:30N 34°35' E 135°27'0 0.0
2018-May-10 18:00N 34°35' E 135°27'0 0.0
2018-May-10 17:30N 34°35' E 135°27'0 0.0
2018-May-10 17:00N 34°35' E 135°27'0 0.0
2018-May-10 16:30N 34°35' E 135°27'0 0.0
2018-May-10 16:00N 34°35' E 135°27'0 0.0
2018-May-10 15:30N 34°35' E 135°27'0 0.0
2018-May-10 15:00N 34°35' E 135°27'0 0.0
2018-May-10 14:30N 34°35' E 135°27'0 0.0
2018-May-10 14:00N 34°35' E 135°27'0 0.0
2018-May-10 13:30N 34°35' E 135°27'0 0.0
2018-May-10 13:00N 34°35' E 135°27'0 0.0
2018-May-10 12:30N 34°35' E 135°27'0 0.0
2018-May-10 12:00N 34°35' E 135°27'0 0.0
2018-May-10 11:30N 34°35' E 135°27'0 0.0
2018-May-10 11:00N 34°35' E 135°27'0 0.0
2018-May-10 10:30N 34°35' E 135°27'0 0.0
2018-May-10 10:00N 34°35' E 135°27'0 0.0
2018-May-10 09:30N 34°35' E 135°27'0 0.0
2018-May-10 09:00N 34°35' E 135°27'0 0.0
2018-May-10 08:30N 34°35' E 135°27'0 0.0
2018-May-10 08:00N 34°35' E 135°27'0 0.0
2018-May-10 07:30N 34°35' E 135°27'0 0.0
2018-May-10 07:00N 34°35' E 135°27'0 0.0
2018-May-10 06:30N 34°35' E 135°27'0 0.0
2018-May-10 05:57N 34°35' E 135°27'0 0.0
2018-May-10 05:30N 34°35' E 135°27'3 5.7
2018-May-10 05:00N 34°36' E 135°24'5 8.8
2018-May-10 04:28N 34°31' E 135°23'0 0.0
2018-May-10 03:58N 34°31' E 135°23'0 0.1
2018-May-10 03:28N 34°31' E 135°23'0 0.1
2018-May-10 03:00N 34°31' E 135°23'4 8.2
2018-May-10 02:30N 34°35' E 135°23'510.6
2018-May-10 02:00N 34°40' E 135°25'0 0.1
2018-May-10 01:30N 34°40' E 135°25'0 0.0
2018-May-10 01:00N 34°40' E 135°25'0 0.0
2018-May-10 00:30N 34°40' E 135°25'0 0.0
2018-May-10 00:00N 34°40' E 135°25'0 0.0
2018-May-09 23:30N 34°40' E 135°25'0 0.0
2018-May-09 23:00N 34°40' E 135°25'0 0.0
2018-May-09 22:30N 34°40' E 135°25'1 2.4
2018-May-09 22:00N 34°40' E 135°27'0 0.7
2018-May-09 21:28N 34°40' E 135°27'0 0.0
2018-May-09 20:58N 34°40' E 135°27'0 0.0
2018-May-09 20:28N 34°40' E 135°27'0 0.0
2018-May-09 19:58N 34°40' E 135°27'0 0.0
2018-May-09 19:28N 34°40' E 135°27'0 0.0
2018-May-09 18:58N 34°40' E 135°27'0 0.0
2018-May-09 18:28N 34°40' E 135°27'0 0.0
2018-May-09 17:58N 34°40' E 135°27'0 0.0
2018-May-09 17:28N 34°40' E 135°27'0 0.0
2018-May-09 16:58N 34°40' E 135°27'0 0.0
2018-May-09 16:28N 34°40' E 135°27'0 0.0
2018-May-09 15:58N 34°40' E 135°27'0 0.0
2018-May-09 15:28N 34°40' E 135°27'0 0.0
2018-May-09 14:58N 34°40' E 135°27'0 0.0
2018-May-09 14:28N 34°40' E 135°27'0 0.0
2018-May-09 13:58N 34°40' E 135°27'0 0.0
2018-May-09 13:28N 34°40' E 135°27'0 0.0
2018-May-09 12:58N 34°40' E 135°27'0 0.0
2018-May-09 12:28N 34°40' E 135°27'0 0.0
2018-May-09 11:58N 34°40' E 135°27'0 0.0
2018-May-09 11:28N 34°40' E 135°27'0 0.0
2018-May-09 10:55N 34°40' E 135°27'0 0.0
2018-May-09 10:28N 34°40' E 135°27'0 0.0
2018-May-09 09:58N 34°40' E 135°27'0 0.0
2018-May-09 09:28N 34°40' E 135°27'0 0.0
2018-May-09 08:58N 34°40' E 135°27'0 0.0
2018-May-09 08:25N 34°40' E 135°27'0 0.0
2018-May-09 07:58N 34°40' E 135°27'0 0.0
2018-May-09 07:28N 34°40' E 135°27'0 0.0
2018-May-09 06:58N 34°40' E 135°27'0 0.0
2018-May-09 06:28N 34°40' E 135°27'0 0.0
2018-May-09 05:58N 34°40' E 135°27'2 5.2
2018-May-09 05:30N 34°39' E 135°25'611.8
2018-May-09 04:59N 34°33' E 135°23'2 3.3
2018-May-09 04:30N 34°31' E 135°23'0 0.0
2018-May-09 04:00N 34°31' E 135°23'0 0.0
2018-May-09 03:30N 34°31' E 135°23'2 4.8
2018-May-09 03:00N 34°34' E 135°23'611.8
2018-May-09 02:30N 34°39' E 135°25'1 2.3
2018-May-09 02:01N 34°40' E 135°25'0 0.0
2018-May-09 01:30N 34°40' E 135°25'0 0.0
2018-May-09 01:00N 34°40' E 135°25'0 0.0
2018-May-09 00:28N 34°40' E 135°25'0 0.0
2018-May-09 00:00N 34°40' E 135°25'0 0.0
2018-May-08 23:30N 34°40' E 135°25'0 0.0
2018-May-08 23:00N 34°40' E 135°25'0 0.0
2018-May-08 22:31N 34°40' E 135°25'1 2.2
2018-May-08 22:00N 34°40' E 135°27'0 0.7
2018-May-08 21:28N 34°40' E 135°27'0 0.0
2018-May-08 20:58N 34°40' E 135°27'0 0.0
2018-May-08 20:25N 34°40' E 135°27'0 0.0
2018-May-08 19:58N 34°40' E 135°27'0 0.0
2018-May-08 19:28N 34°40' E 135°27'0 0.0
2018-May-08 18:58N 34°40' E 135°27'0 0.0
2018-May-08 18:28N 34°40' E 135°27'0 0.0
2018-May-08 17:58N 34°40' E 135°27'0 0.0
2018-May-08 17:28N 34°40' E 135°27'0 0.0
2018-May-08 16:58N 34°40' E 135°27'0 0.0
2018-May-08 16:28N 34°40' E 135°27'0 0.0
2018-May-08 15:58N 34°40' E 135°27'0 0.0
2018-May-08 15:28N 34°40' E 135°27'0 0.0
2018-May-08 14:58N 34°40' E 135°27'0 0.0
2018-May-08 14:28N 34°40' E 135°27'0 0.0
2018-May-08 13:58N 34°40' E 135°27'0 0.0
2018-May-08 13:28N 34°40' E 135°27'0 0.0
2018-May-08 12:58N 34°40' E 135°27'0 0.0
2018-May-08 12:28N 34°40' E 135°27'0 0.0
2018-May-08 11:58N 34°40' E 135°27'0 0.0
2018-May-08 11:28N 34°40' E 135°27'0 0.0
2018-May-08 10:58N 34°40' E 135°27'0 0.0
2018-May-08 10:28N 34°40' E 135°27'0 0.0
2018-May-08 09:58N 34°40' E 135°27'0 0.0
2018-May-08 09:28N 34°40' E 135°27'0 0.0
2018-May-08 08:55N 34°40' E 135°27'0 0.0
2018-May-08 08:25N 34°40' E 135°27'0 0.0
2018-May-08 07:58N 34°40' E 135°27'0 0.0
2018-May-08 07:28N 34°40' E 135°27'0 0.0
2018-May-08 06:58N 34°40' E 135°27'0 0.0
2018-May-08 06:28N 34°40' E 135°27'0 0.0
2018-May-08 05:58N 34°40' E 135°27'0 0.0
2018-May-08 05:28N 34°40' E 135°27'  
Track history (hours):
 
Tides and Currents Weather Stations Pressure Air Temp Water Temp Dewpoint Dewpoint Depression Visibility Wind Speed Wind Dir Waves Ship Positions

Nisijima

Last reported at 2018-May-18 04:59 UTC. Time now 2018-May-20 10:22 UTC.
Position N 34°39' E 134°38'.

Length 74 m.

Type: Ship. MMSI: 431007231.

Date/timePositionNaut miles runAvg speedWind from/ knotsBaromVisibWave heightAir tempDewpointWater temp
2018-May-18 04:59N 34°39' E 134°38'2012.3
2018-May-18 03:22N 34°37' E 135°03'410.7
2018-May-18 02:57N 34°32' E 135°04'613.8
2018-May-18 02:30N 34°26' E 135°02'713.8
2018-May-18 02:00N 34°20' E 135°00'613.0
2018-May-18 01:30N 34°13' E 135°01'713.5
2018-May-18 01:00N 34°07' E 135°02'814.0
2018-May-18 00:28N 33°59' E 135°02'8 1.4
2018-May-17 18:54N 34°07' E 135°02'512.4
2018-May-17 18:30N 34°12' E 135°03'613.0
2018-May-17 18:00N 34°18' E 135°04'1212.8
2018-May-17 17:04N 34°28' E 135°13'112.2
2018-May-17 17:00N 34°28' E 135°13'612.1
2018-May-17 16:30N 34°32' E 135°18'8 0.8
2018-May-17 06:24N 34°35' E 135°27'0 0.0
2018-May-17 04:18N 34°35' E 135°27'0 0.0
2018-May-17 04:00N 34°35' E 135°27'3 5.0
2018-May-17 03:30N 34°36' E 135°24'4 1.3
2018-May-17 00:44N 34°33' E 135°23'411.8
2018-May-17 00:22N 34°37' E 135°23'4 0.2
2018-May-16 05:32N 34°40' E 135°25'0 0.8
2018-May-16 05:28N 34°40' E 135°25'511.3
2018-May-16 05:00N 34°36' E 135°23'5 0.9
2018-May-15 23:05N 34°40' E 135°25'0 0.0
2018-May-15 22:59N 34°40' E 135°25'0 0.0
2018-May-15 22:26N 34°40' E 135°25'1 0.2
2018-May-15 14:19N 34°40' E 135°27'0 0.0
2018-May-15 13:58N 34°40' E 135°27'0 0.0
2018-May-15 13:28N 34°40' E 135°27'0 0.0
2018-May-15 12:58N 34°40' E 135°27'0 0.0
2018-May-15 12:28N 34°40' E 135°27'0 0.0
2018-May-15 11:58N 34°40' E 135°27'0 0.0
2018-May-15 11:28N 34°40' E 135°27'0 0.0
2018-May-15 10:58N 34°40' E 135°27'0 0.0
2018-May-15 10:25N 34°40' E 135°27'0 0.0
2018-May-15 09:58N 34°40' E 135°27'0 0.0
2018-May-15 09:28N 34°40' E 135°27'0 0.0
2018-May-15 08:58N 34°40' E 135°27'0 0.0
2018-May-15 08:28N 34°40' E 135°27'0 0.0
2018-May-15 07:58N 34°40' E 135°27'0 0.0
2018-May-15 07:28N 34°40' E 135°27'0 0.0
2018-May-15 06:58N 34°40' E 135°27'0 0.0
2018-May-15 06:28N 34°40' E 135°27'0 0.0
2018-May-15 05:58N 34°40' E 135°27'4 8.6
2018-May-15 05:29N 34°38' E 135°23'612.2
2018-May-15 05:00N 34°32' E 135°23'0 0.7
2018-May-15 04:28N 34°31' E 135°23'0 0.0
2018-May-15 03:58N 34°31' E 135°23'0 0.0
2018-May-15 03:25N 34°31' E 135°23'4 8.4
2018-May-15 03:00N 34°35' E 135°23'611.5
2018-May-15 02:30N 34°40' E 135°25'0 0.5
2018-May-15 01:59N 34°40' E 135°25'0 0.0
2018-May-15 01:29N 34°40' E 135°25'0 0.0
2018-May-15 00:59N 34°40' E 135°25'0 0.0
2018-May-15 00:29N 34°40' E 135°25'0 0.0
2018-May-14 23:59N 34°40' E 135°25'0 0.0
2018-May-14 23:29N 34°40' E 135°25'0 0.0
2018-May-14 22:59N 34°40' E 135°25'0 0.0
2018-May-14 22:29N 34°40' E 135°25'0 0.0
2018-May-14 21:59N 34°40' E 135°25'0 0.0
2018-May-14 21:29N 34°40' E 135°25'1 2.0
2018-May-14 21:01N 34°40' E 135°26'1 2.5
2018-May-14 20:28N 34°40' E 135°27'0 0.0
2018-May-14 19:59N 34°40' E 135°27'0 0.0
2018-May-14 19:29N 34°40' E 135°27'0 0.0
2018-May-14 18:59N 34°40' E 135°27'0 0.0
2018-May-14 18:29N 34°40' E 135°27'0 0.0
2018-May-14 17:59N 34°40' E 135°27'0 0.0
2018-May-14 17:29N 34°40' E 135°27'0 0.0
2018-May-14 16:58N 34°40' E 135°27'0 0.0
2018-May-14 16:28N 34°40' E 135°27'0 0.0
2018-May-14 15:58N 34°40' E 135°27'0 0.0
2018-May-14 15:28N 34°40' E 135°27'0 0.0
2018-May-14 14:59N 34°40' E 135°27'0 0.0
2018-May-14 14:29N 34°40' E 135°27'0 0.0
2018-May-14 13:58N 34°40' E 135°27'0 0.0
2018-May-14 13:29N 34°40' E 135°27'0 0.0
2018-May-14 12:59N 34°40' E 135°27'0 0.0
2018-May-14 12:29N 34°40' E 135°27'0 0.0
2018-May-14 11:53N 34°40' E 135°27'0 0.0
2018-May-14 11:29N 34°40' E 135°27'0 0.0
2018-May-14 10:58N 34°40' E 135°27'0 0.0
2018-May-14 10:29N 34°40' E 135°27'0 0.0
2018-May-14 09:59N 34°40' E 135°27'0 0.0
2018-May-14 09:29N 34°40' E 135°27'0 0.0
2018-May-14 08:59N 34°40' E 135°27'0 0.0
2018-May-14 08:29N 34°40' E 135°27'0 0.0
2018-May-14 07:59N 34°40' E 135°27'0 0.0
2018-May-14 07:29N 34°40' E 135°27'0 0.0
2018-May-14 06:59N 34°40' E 135°27'0 0.0
2018-May-14 06:29N 34°40' E 135°27'0 0.0
2018-May-14 05:59N 34°40' E 135°27'0 0.0
2018-May-14 05:25N 34°40' E 135°27'0 0.0
2018-May-14 04:59N 34°40' E 135°27'2 4.1
2018-May-14 04:31N 34°39' E 135°26'3 6.0
2018-May-14 04:00N 34°42' E 135°24'0 0.0
2018-May-14 03:30N 34°42' E 135°24'0 0.8
2018-May-14 03:00N 34°42' E 135°24'4 7.9
2018-May-14 02:30N 34°39' E 135°27'0 0.4
2018-May-14 01:59N 34°39' E 135°27'0 0.0
2018-May-14 01:29N 34°39' E 135°27'0 0.0
2018-May-14 00:59N 34°39' E 135°27'0 0.0
2018-May-14 00:29N 34°39' E 135°27'1 1.1
2018-May-14 00:00N 34°39' E 135°27'611.6
2018-May-13 23:30N 34°41' E 135°20'3 5.2
2018-May-13 22:58N 34°42' E 135°17'0 0.0
2018-May-13 22:28N 34°42' E 135°17'0 0.0
2018-May-13 21:58N 34°42' E 135°17'0 0.0
2018-May-13 21:28N 34°42' E 135°17'0 0.0
2018-May-13 20:58N 34°42' E 135°17'1 1.9
2018-May-13 20:30N 34°42' E 135°18'510.5
2018-May-13 20:00N 34°37' E 135°15'612.3
2018-May-13 19:30N 34°35' E 135°08'611.9
2018-May-13 19:00N 34°37' E 135°01'612.3
2018-May-13 18:30N 34°37' E 134°53'713.1
2018-May-13 17:58N 34°39' E 134°45'11 0.2
2018-May-11 17:14N 34°41' E 134°32'0 0.2
2018-May-11 16:56N 34°41' E 134°33'0 0.0
2018-May-11 16:26N 34°41' E 134°33'0 0.0
2018-May-11 11:32N 34°41' E 134°32'0 0.0
2018-May-11 11:14N 34°41' E 134°32'0 0.0
2018-May-11 09:38N 34°41' E 134°32'1 3.6
2018-May-11 09:29N 34°41' E 134°33'612.0
2018-May-11 08:59N 34°40' E 134°40'712.4
2018-May-11 08:23N 34°39' E 134°49'513.7
2018-May-11 08:00N 34°37' E 134°55'613.0
2018-May-11 07:30N 34°36' E 135°03'611.6
2018-May-11 07:00N 34°36' E 135°10'611.5
2018-May-11 06:30N 34°37' E 135°17'611.4
2018-May-11 06:00N 34°36' E 135°24'3 6.2
2018-May-11 05:30N 34°35' E 135°27'0 0.0
2018-May-11 05:00N 34°35' E 135°27'0 0.0
2018-May-11 04:27N 34°35' E 135°27'0 0.0
2018-May-11 04:00N 34°35' E 135°27'1 2.3
2018-May-11 03:30N 34°35' E 135°26'4 7.8
2018-May-11 03:00N 34°32' E 135°23'1 2.0
2018-May-11 02:30N 34°31' E 135°23'0 0.0
2018-May-11 02:00N 34°31' E 135°23'0 0.0
2018-May-11 01:27N 34°31' E 135°23'0 0.0
2018-May-11 00:59N 34°31' E 135°23'2 4.7
2018-May-11 00:30N 34°34' E 135°23'3 6.3
2018-May-11 00:00N 34°35' E 135°26'1 1.4
2018-May-10 23:30N 34°35' E 135°27'0 0.0
2018-May-10 23:00N 34°35' E 135°27'0 0.0
2018-May-10 22:27N 34°35' E 135°27'0 0.0
2018-May-10 22:00N 34°35' E 135°27'0 0.0
2018-May-10 21:30N 34°35' E 135°27'0 0.0
2018-May-10 21:00N 34°35' E 135°27'0 0.0
2018-May-10 20:30N 34°35' E 135°27'0 0.0
2018-May-10 20:00N 34°35' E 135°27'0 0.0
2018-May-10 19:30N 34°35' E 135°27'0 0.0
2018-May-10 19:00N 34°35' E 135°27'0 0.0
2018-May-10 18:30N 34°35' E 135°27'0 0.0
2018-May-10 18:00N 34°35' E 135°27'0 0.0
2018-May-10 17:30N 34°35' E 135°27'0 0.0
2018-May-10 17:00N 34°35' E 135°27'0 0.0
2018-May-10 16:30N 34°35' E 135°27'0 0.0
2018-May-10 16:00N 34°35' E 135°27'0 0.0
2018-May-10 15:30N 34°35' E 135°27'0 0.0
2018-May-10 15:00N 34°35' E 135°27'0 0.0
2018-May-10 14:30N 34°35' E 135°27'0 0.0
2018-May-10 14:00N 34°35' E 135°27'0 0.0
2018-May-10 13:30N 34°35' E 135°27'0 0.0
2018-May-10 13:00N 34°35' E 135°27'0 0.0
2018-May-10 12:30N 34°35' E 135°27'0 0.0
2018-May-10 12:00N 34°35' E 135°27'0 0.0
2018-May-10 11:30N 34°35' E 135°27'0 0.0
2018-May-10 11:00N 34°35' E 135°27'0 0.0
2018-May-10 10:30N 34°35' E 135°27'0 0.0
2018-May-10 10:00N 34°35' E 135°27'0 0.0
2018-May-10 09:30N 34°35' E 135°27'0 0.0
2018-May-10 09:00N 34°35' E 135°27'0 0.0
2018-May-10 08:30N 34°35' E 135°27'0 0.0
2018-May-10 08:00N 34°35' E 135°27'0 0.0
2018-May-10 07:30N 34°35' E 135°27'0 0.0
2018-May-10 07:00N 34°35' E 135°27'0 0.0
2018-May-10 06:30N 34°35' E 135°27'0 0.0
2018-May-10 05:57N 34°35' E 135°27'0 0.0
2018-May-10 05:30N 34°35' E 135°27'3 5.7
2018-May-10 05:00N 34°36' E 135°24'5 8.8
2018-May-10 04:28N 34°31' E 135°23'0 0.0
2018-May-10 03:58N 34°31' E 135°23'0 0.1
2018-May-10 03:28N 34°31' E 135°23'0 0.1
2018-May-10 03:00N 34°31' E 135°23'4 8.2
2018-May-10 02:30N 34°35' E 135°23'510.6
2018-May-10 02:00N 34°40' E 135°25'0 0.1
2018-May-10 01:30N 34°40' E 135°25'0 0.0
2018-May-10 01:00N 34°40' E 135°25'0 0.0
2018-May-10 00:30N 34°40' E 135°25'0 0.0
2018-May-10 00:00N 34°40' E 135°25'0 0.0
2018-May-09 23:30N 34°40' E 135°25'0 0.0
2018-May-09 23:00N 34°40' E 135°25'0 0.0
2018-May-09 22:30N 34°40' E 135°25'1 2.4
2018-May-09 22:00N 34°40' E 135°27'0 0.7
2018-May-09 21:28N 34°40' E 135°27'0 0.0
2018-May-09 20:58N 34°40' E 135°27'0 0.0
2018-May-09 20:28N 34°40' E 135°27'0 0.0
2018-May-09 19:58N 34°40' E 135°27'0 0.0
2018-May-09 19:28N 34°40' E 135°27'0 0.0
2018-May-09 18:58N 34°40' E 135°27'0 0.0
2018-May-09 18:28N 34°40' E 135°27'0 0.0
2018-May-09 17:58N 34°40' E 135°27'0 0.0
2018-May-09 17:28N 34°40' E 135°27'0 0.0
2018-May-09 16:58N 34°40' E 135°27'0 0.0
2018-May-09 16:28N 34°40' E 135°27'0 0.0
2018-May-09 15:58N 34°40' E 135°27'0 0.0
2018-May-09 15:28N 34°40' E 135°27'0 0.0
2018-May-09 14:58N 34°40' E 135°27'0 0.0
2018-May-09 14:28N 34°40' E 135°27'0 0.0
2018-May-09 13:58N 34°40' E 135°27'0 0.0
2018-May-09 13:28N 34°40' E 135°27'0 0.0
2018-May-09 12:58N 34°40' E 135°27'0 0.0
2018-May-09 12:28N 34°40' E 135°27'0 0.0
2018-May-09 11:58N 34°40' E 135°27'0 0.0
2018-May-09 11:28N 34°40' E 135°27'0 0.0
2018-May-09 10:55N 34°40' E 135°27'0 0.0
2018-May-09 10:28N 34°40' E 135°27'0 0.0
2018-May-09 09:58N 34°40' E 135°27'0 0.0
2018-May-09 09:28N 34°40' E 135°27'0 0.0
2018-May-09 08:58N 34°40' E 135°27'0 0.0
2018-May-09 08:25N 34°40' E 135°27'0 0.0
2018-May-09 07:58N 34°40' E 135°27'0 0.0
2018-May-09 07:28N 34°40' E 135°27'0 0.0
2018-May-09 06:58N 34°40' E 135°27'0 0.0
2018-May-09 06:28N 34°40' E 135°27'0 0.0
2018-May-09 05:58N 34°40' E 135°27'2 5.2
2018-May-09 05:30N 34°39' E 135°25'611.8
2018-May-09 04:59N 34°33' E 135°23'2 3.3
2018-May-09 04:30N 34°31' E 135°23'0 0.0
2018-May-09 04:00N 34°31' E 135°23'0 0.0
2018-May-09 03:30N 34°31' E 135°23'2 4.8
2018-May-09 03:00N 34°34' E 135°23'611.8
2018-May-09 02:30N 34°39' E 135°25'1 2.3
2018-May-09 02:01N 34°40' E 135°25'0 0.0
2018-May-09 01:30N 34°40' E 135°25'0 0.0
2018-May-09 01:00N 34°40' E 135°25'0 0.0
2018-May-09 00:28N 34°40' E 135°25'0 0.0
2018-May-09 00:00N 34°40' E 135°25'0 0.0
2018-May-08 23:30N 34°40' E 135°25'0 0.0
2018-May-08 23:00N 34°40' E 135°25'0 0.0
2018-May-08 22:31N 34°40' E 135°25'1 2.2
2018-May-08 22:00N 34°40' E 135°27'0 0.7
2018-May-08 21:28N 34°40' E 135°27'0 0.0
2018-May-08 20:58N 34°40' E 135°27'0 0.0
2018-May-08 20:25N 34°40' E 135°27'0 0.0
2018-May-08 19:58N 34°40' E 135°27'0 0.0
2018-May-08 19:28N 34°40' E 135°27'0 0.0
2018-May-08 18:58N 34°40' E 135°27'0 0.0
2018-May-08 18:28N 34°40' E 135°27'0 0.0
2018-May-08 17:58N 34°40' E 135°27'0 0.0
2018-May-08 17:28N 34°40' E 135°27'0 0.0
2018-May-08 16:58N 34°40' E 135°27'0 0.0
2018-May-08 16:28N 34°40' E 135°27'0 0.0
2018-May-08 15:58N 34°40' E 135°27'0 0.0
2018-May-08 15:28N 34°40' E 135°27'0 0.0
2018-May-08 14:58N 34°40' E 135°27'0 0.0
2018-May-08 14:28N 34°40' E 135°27'0 0.0
2018-May-08 13:58N 34°40' E 135°27'0 0.0
2018-May-08 13:28N 34°40' E 135°27'0 0.0
2018-May-08 12:58N 34°40' E 135°27'0 0.0
2018-May-08 12:28N 34°40' E 135°27'0 0.0
2018-May-08 11:58N 34°40' E 135°27'0 0.0
2018-May-08 11:28N 34°40' E 135°27'0 0.0
2018-May-08 10:58N 34°40' E 135°27'0 0.0
2018-May-08 10:28N 34°40' E 135°27'0 0.0
2018-May-08 09:58N 34°40' E 135°27'0 0.0
2018-May-08 09:28N 34°40' E 135°27'0 0.0
2018-May-08 08:55N 34°40' E 135°27'0 0.0
2018-May-08 08:25N 34°40' E 135°27'0 0.0
2018-May-08 07:58N 34°40' E 135°27'0 0.0
2018-May-08 07:28N 34°40' E 135°27'0 0.0
2018-May-08 06:58N 34°40' E 135°27'0 0.0
2018-May-08 06:28N 34°40' E 135°27'0 0.0
2018-May-08 05:58N 34°40' E 135°27'0 0.0
2018-May-08 05:28N 34°40' E 135°27'  

Dump ship's entire track history